Time;durP1;ratioP1;P1;durP2;ratioP2;P2;SDS_P1;SDS_P2;PMS_P1;PMS_P2;Temp;Humidity;BMP_temperature;BMP_pressure;BME280_temperature;BME280_humidity;BME280_pressure;Samples;Min_cycle;Max_cycle;Signal;HPM_P1;HPM_P2
2021/05/04 00:02:26;;;;;;;15.13;2.17;;;12.50;1.00;;;;;;4921552;29;20448;-84
2021/05/04 00:05:01;;;;;;;13.57;1.60;;;12.30;1.00;;;;;;4956496;29;20547;-84
2021/05/04 00:07:38;;;;;;;13.87;1.50;;;12.40;1.00;;;;;;4956481;28;20920;-85
2021/05/04 00:12:56;;;;;;;15.77;1.90;;;12.60;1.00;;;;;;4953540;29;20484;-84
2021/05/04 00:15:27;;;;;;;14.30;1.70;;;12.50;1.00;;;;;;4956425;29;20947;-84
2021/05/04 00:17:57;;;;;;;13.90;1.40;;;12.40;1.00;;;;;;4956249;29;21028;-85
2021/05/04 00:20:26;;;;;;;14.27;1.73;;;12.50;1.00;;;;;;4956149;29;21039;-85
2021/05/04 00:25:57;;;;;;;14.73;2.03;;;12.50;1.00;;;;;;5189166;23;20514;-83
2021/05/04 00:28:29;;;;;;;14.10;1.53;;;12.60;1.00;;;;;;5026840;28;20844;-83
2021/05/04 00:31:01;;;;;;;14.00;1.40;;;12.60;1.00;;;;;;5034032;28;21003;-83
2021/05/04 00:33:32;;;;;;;17.77;1.80;;;12.60;1.00;;;;;;5034137;28;20826;-83
2021/05/04 00:36:01;;;;;;;14.53;2.80;;;12.70;1.00;;;;;;5033920;28;20452;-83
2021/05/04 00:38:33;;;;;;;14.20;1.33;;;12.70;1.00;;;;;;5033999;28;20529;-83
2021/05/04 00:41:00;;;;;;;14.60;1.30;;;12.70;1.00;;;;;;5033985;28;20982;-82
2021/05/04 00:43:34;;;;;;;15.30;1.97;;;12.70;1.00;;;;;;5032751;28;20949;-83
2021/05/04 00:46:36;;;;;;;14.07;1.50;;;12.80;1.00;;;;;;5034039;28;20458;-83
2021/05/04 00:49:32;;;;;;;14.17;1.27;;;12.90;1.00;;;;;;5001910;28;20483;-83
2021/05/04 00:52:02;;;;;;;14.67;1.57;;;13.10;1.00;;;;;;5033643;28;20896;-83
2021/05/04 00:54:34;;;;;;;14.33;1.30;;;13.00;1.00;;;;;;5033704;28;20496;-83
2021/05/04 00:57:01;;;;;;;15.10;1.40;;;12.90;1.00;;;;;;5032796;28;20467;-83
2021/05/04 00:59:34;;;;;;;15.80;1.67;;;12.90;1.00;;;;;;5033787;28;20967;-84
2021/05/04 01:02:14;;;;;;;14.17;1.27;;;12.90;1.00;;;;;;5033764;28;21034;-83
2021/05/04 01:04:48;;;;;;;15.77;2.33;;;12.90;1.00;;;;;;5033549;28;20535;-84
2021/05/04 01:07:21;;;;;;;15.33;1.57;;;12.90;1.00;;;;;;5033515;28;20451;-84
2021/05/04 01:09:51;;;;;;;17.13;2.37;;;12.80;1.00;;;;;;5033465;28;20849;-83
2021/05/04 01:12:27;;;;;;;15.63;2.23;;;12.90;1.00;;;;;;5035240;28;20495;-83
2021/05/04 01:15:01;;;;;;;14.77;1.47;;;12.90;1.00;;;;;;5053279;28;20468;-83
2021/05/04 01:17:36;;;;;;;14.47;1.47;;;12.90;1.00;;;;;;5053239;28;20539;-82
2021/05/04 01:20:14;;;;;;;15.33;1.60;;;12.80;1.00;;;;;;5052493;28;20532;-84
2021/05/04 01:22:44;;;;;;;15.23;1.47;;;12.80;1.00;;;;;;5053068;28;20450;-83
2021/05/04 01:25:48;;;;;;;;;;;;;;;;;;;;;
2021/05/04 01:28:27;;;;;;;15.17;1.60;;;12.90;1.00;;;;;;5051474;28;20993;-83
2021/05/04 01:31:10;;;;;;;;;;;;;;;;;;;;;
2021/05/04 01:34:13;;;;;;;;;;;;;;;;;;;;;
2021/05/04 01:36:44;;;;;;;15.13;1.37;;;13.10;1.00;;;;;;5044171;28;20882;-83
2021/05/04 01:39:39;;;;;;;14.43;1.10;;;13.00;1.00;;;;;;5052967;28;20443;-84
2021/05/04 01:42:36;;;;;;;16.00;1.90;;;13.10;1.00;;;;;;5051782;28;20466;-83
2021/05/04 01:45:20;;;;;;;;;;;;;;;;;;;;;
2021/05/04 01:48:12;;;;;;;27.57;1.90;;;13.10;1.00;;;;;;5052524;28;20447;-83
2021/05/04 01:51:23;;;;;;;;;;;;;;;;;;;;;
2021/05/04 01:54:26;;;;;;;15.30;1.53;;;13.10;1.00;;;;;;5052257;28;20443;-84
2021/05/04 01:57:09;;;;;;;18.20;2.00;;;13.00;1.00;;;;;;4931887;29;20457;-84
2021/05/04 02:00:29;;;;;;;;;;;;;;;;;;;;;
2021/05/04 02:02:57;;;;;;;17.53;1.90;;;13.10;1.00;;;;;;4868613;29;20456;-83
2021/05/04 02:05:24;;;;;;;15.10;1.27;;;13.00;1.00;;;;;;4966319;28;20950;-83
2021/05/04 02:08:05;;;;;;;25.10;2.63;;;12.80;1.00;;;;;;5052625;28;20954;-83
2021/05/04 02:10:32;;;;;;;15.20;1.40;;;12.70;1.00;;;;;;5052589;28;20475;-83
2021/05/04 02:13:00;;;;;;;15.77;1.63;;;12.50;1.00;;;;;;5217148;22;20496;-85
2021/05/04 02:15:26;;;;;;;37.90;3.43;;;12.20;1.00;;;;;;5012723;28;20457;-84
2021/05/04 02:18:02;;;;;;;13.80;1.43;;;11.80;1.00;;;;;;5013217;28;20510;-85
2021/05/04 02:20:32;;;;;;;13.50;1.20;;;11.50;1.00;;;;;;5013149;28;20459;-84
2021/05/04 02:22:58;;;;;;;13.10;1.33;;;10.90;1.00;;;;;;5013145;28;20944;-83
2021/05/04 02:25:25;;;;;;;11.87;1.30;;;10.50;10.80;;;;;;5012837;28;20513;-83
2021/05/04 02:27:51;;;;;;;11.77;1.40;;;10.20;10.20;;;;;;5011626;28;20461;-83
2021/05/04 02:30:28;;;;;;;11.27;1.50;;;9.90;18.20;;;;;;5014381;28;20531;-84
2021/05/04 02:32:56;;;;;;;10.13;1.30;;;9.80;16.60;;;;;;5016629;28;20457;-83
2021/05/04 02:35:27;;;;;;;16.43;2.50;;;9.60;22.50;;;;;;5016664;28;20456;-84
2021/05/04 02:37:55;;;;;;;10.30;1.37;;;9.50;37.40;;;;;;5016477;28;20461;-84
2021/05/04 02:40:21;;;;;;;9.60;1.60;;;9.50;27.40;;;;;;5016764;28;20557;-84
2021/05/04 02:42:48;;;;;;;9.10;1.33;;;9.40;25.30;;;;;;5015257;28;20952;-84
2021/05/04 02:45:14;;;;;;;11.50;1.80;;;9.30;28.80;;;;;;5016432;28;20466;-83
2021/05/04 02:47:42;;;;;;;9.10;1.33;;;9.20;36.30;;;;;;5016369;28;20453;-83
2021/05/04 02:50:11;;;;;;;9.87;1.10;;;9.00;41.60;;;;;;5016380;28;20450;-83
2021/05/04 02:52:38;;;;;;;9.57;1.70;;;9.00;44.00;;;;;;5016201;28;20490;-83
2021/05/04 02:55:05;;;;;;;9.37;2.07;;;8.90;56.00;;;;;;5291088;23;20579;-82
2021/05/04 02:57:31;;;;;;;10.00;1.27;;;8.70;70.20;;;;;;5014977;28;20493;-81
2021/05/04 03:00:03;;;;;;;8.80;1.13;;;8.70;64.60;;;;;;5016331;28;20482;-83
2021/05/04 03:02:29;;;;;;;8.27;1.10;;;8.60;68.10;;;;;;5015986;28;20826;-83
2021/05/04 03:04:56;;;;;;;8.53;1.47;;;8.60;80.10;;;;;;5015953;28;20557;-83
2021/05/04 03:07:26;;;;;;;8.50;1.50;;;8.50;84.30;;;;;;5016225;28;20454;-83
2021/05/04 03:09:52;;;;;;;8.30;1.23;;;8.60;70.70;;;;;;5016006;28;20460;-83
2021/05/04 03:12:25;;;;;;;8.43;1.57;;;8.60;76.00;;;;;;5014308;28;20495;-83
2021/05/04 03:14:51;;;;;;;9.30;1.40;;;8.60;76.70;;;;;;5015877;28;20475;-83
2021/05/04 03:17:18;;;;;;;8.07;1.10;;;8.60;71.70;;;;;;5015706;28;20550;-83
2021/05/04 03:19:48;;;;;;;8.40;1.50;;;8.60;74.00;;;;;;5016013;28;20957;-84
2021/05/04 03:22:15;;;;;;;8.80;1.80;;;8.60;75.70;;;;;;5015688;28;20455;-84
2021/05/04 03:24:41;;;;;;;7.60;0.97;;;8.50;82.50;;;;;;5015568;28;20462;-83
2021/05/04 03:27:08;;;;;;;8.10;1.20;;;8.50;81.30;;;;;;5014266;28;20468;-82
2021/05/04 03:29:35;;;;;;;7.77;1.63;;;8.60;75.00;;;;;;5015694;28;20465;-83
2021/05/04 03:32:01;;;;;;;8.50;2.10;;;8.50;72.30;;;;;;5015262;28;20537;-83
2021/05/04 03:34:28;;;;;;;9.13;1.70;;;8.50;68.70;;;;;;5015662;28;20454;-83
2021/05/04 03:37:00;;;;;;;8.20;1.10;;;8.50;72.50;;;;;;5015497;28;20542;-83
2021/05/04 03:39:29;;;;;;;7.67;1.20;;;8.40;76.60;;;;;;5015213;28;20458;-83
2021/05/04 03:41:55;;;;;;;8.13;1.53;;;8.50;76.30;;;;;;5013573;28;20463;-83
2021/05/04 03:44:23;;;;;;;7.70;1.53;;;8.50;78.30;;;;;;5015349;28;20796;-83
2021/05/04 03:46:50;;;;;;;8.40;1.97;;;8.50;76.80;;;;;;5015271;28;20459;-82
2021/05/04 03:49:18;;;;;;;8.00;1.60;;;8.50;76.40;;;;;;5015646;28;20449;-83
2021/05/04 03:51:46;;;;;;;7.90;1.10;;;8.50;76.60;;;;;;5015182;28;20484;-83
2021/05/04 03:54:21;;;;;;;7.90;1.20;;;8.60;78.70;;;;;;5014876;28;20487;-83
2021/05/04 03:56:51;;;;;;;9.80;1.23;;;8.60;72.30;;;;;;5013848;28;20466;-83
2021/05/04 03:59:17;;;;;;;7.63;1.10;;;8.60;80.20;;;;;;5014896;28;20977;-82
2021/05/04 04:01:46;;;;;;;9.60;1.97;;;8.60;76.80;;;;;;5014930;28;20994;-83
2021/05/04 04:04:14;;;;;;;7.67;1.30;;;8.60;79.50;;;;;;5014912;28;20466;-83
2021/05/04 04:06:40;;;;;;;14.30;1.73;;;8.60;80.10;;;;;;5014756;28;20469;-83
2021/05/04 04:09:07;;;;;;;8.60;1.20;;;8.60;80.60;;;;;;5015013;28;20866;-83
2021/05/04 04:11:46;;;;;;;7.60;1.10;;;8.60;74.40;;;;;;5014538;28;20513;-83
2021/05/04 04:14:15;;;;;;;7.97;1.37;;;8.70;66.70;;;;;;5014664;28;20464;-82
2021/05/04 04:16:42;;;;;;;7.80;1.20;;;8.70;63.40;;;;;;5014695;28;20446;-82
2021/05/04 04:19:08;;;;;;;9.40;2.40;;;8.70;68.90;;;;;;5014578;28;20947;-83
2021/05/04 04:21:37;;;;;;;7.50;1.33;;;8.80;63.70;;;;;;5014548;28;20457;-83
2021/05/04 04:24:04;;;;;;;7.33;1.10;;;8.90;62.00;;;;;;5014562;28;20824;-83
2021/05/04 04:26:30;;;;;;;7.50;1.10;;;9.00;52.70;;;;;;5014447;28;20456;-82
2021/05/04 04:28:57;;;;;;;7.77;1.47;;;9.00;61.10;;;;;;5013334;28;20461;-83
2021/05/04 04:31:24;;;;;;;8.57;1.40;;;9.00;58.60;;;;;;5014381;28;20490;-82
2021/05/04 04:33:50;;;;;;;7.73;1.17;;;9.10;55.30;;;;;;5014322;28;20460;-83
2021/05/04 04:36:19;;;;;;;8.40;1.30;;;9.10;55.20;;;;;;5014280;28;20984;-82
2021/05/04 04:38:45;;;;;;;12.77;2.37;;;9.10;49.70;;;;;;5014442;28;20453;-82
2021/05/04 04:41:13;;;;;;;7.90;1.00;;;9.20;50.00;;;;;;5014262;28;21004;-82
2021/05/04 04:43:39;;;;;;;8.80;1.60;;;9.30;49.60;;;;;;5012973;28;20556;-82
2021/05/04 04:46:06;;;;;;;8.70;1.60;;;9.20;51.80;;;;;;5014038;28;20494;-82
2021/05/04 04:48:33;;;;;;;8.17;1.50;;;9.30;49.20;;;;;;5014022;28;20460;-82
2021/05/04 04:50:59;;;;;;;8.10;1.33;;;9.30;52.90;;;;;;5014197;28;20909;-83
2021/05/04 04:53:28;;;;;;;8.07;1.30;;;9.30;51.30;;;;;;5013217;28;20892;-83
2021/05/04 04:55:54;;;;;;;9.13;2.40;;;9.40;49.30;;;;;;5013847;28;20524;-83
2021/05/04 04:58:30;;;;;;;8.53;1.27;;;9.30;52.00;;;;;;5012524;28;20455;-83
2021/05/04 05:01:11;;;;;;;8.70;1.73;;;9.50;46.40;;;;;;5013874;28;20730;-83
2021/05/04 05:03:59;;;;;;;10.03;2.10;;;9.50;44.40;;;;;;5010719;28;20483;-84
2021/05/04 05:06:26;;;;;;;8.67;1.33;;;9.50;44.40;;;;;;5174681;23;20589;-83
2021/05/04 05:08:54;;;;;;;8.63;1.30;;;9.50;43.50;;;;;;5013953;28;20457;-81
2021/05/04 05:11:40;;;;;;;8.47;1.40;;;9.50;41.20;;;;;;5033095;28;20487;-84
2021/05/04 05:14:08;;;;;;;8.50;1.23;;;9.50;44.60;;;;;;5032943;28;20467;-83
2021/05/04 05:16:36;;;;;;;8.70;1.67;;;9.50;46.60;;;;;;5033433;28;20453;-82
2021/05/04 05:19:05;;;;;;;8.27;1.00;;;9.40;47.80;;;;;;5033530;28;20458;-84
2021/05/04 05:21:39;;;;;;;8.63;1.40;;;9.50;44.70;;;;;;5033358;28;20463;-83
2021/05/04 05:24:07;;;;;;;8.53;1.50;;;9.50;44.50;;;;;;5033352;28;20925;-83
2021/05/04 05:26:54;;;;;;;8.10;1.00;;;9.50;45.50;;;;;;5033117;28;20455;-82
2021/05/04 05:29:23;;;;;;;9.00;1.87;;;9.50;46.30;;;;;;5033588;28;20489;-82
2021/05/04 05:32:05;;;;;;;;;;;;;;;;;;;;;
2021/05/04 05:34:45;;;;;;;8.80;1.23;;;9.60;44.50;;;;;;5025906;28;20452;-84
2021/05/04 05:37:21;;;;;;;8.40;1.13;;;9.60;44.50;;;;;;5033232;28;21013;-82
2021/05/04 05:40:27;;;;;;;;;;;;;;;;;;;;;
2021/05/04 05:46:31;;;;;;;10.90;2.17;;;9.70;42.20;;;;;;4933538;29;20981;-83
2021/05/04 05:49:03;;;;;;;9.30;1.47;;;9.80;41.00;;;;;;4921712;29;21020;-83
2021/05/04 05:52:10;;;;;;;;;;;;;;;;;;;;;
2021/05/04 05:58:04;;;;;;;18.53;2.57;;;9.90;38.80;;;;;;5025856;28;20465;-86
2021/05/04 06:00:45;;;;;;;9.60;1.60;;;10.00;37.90;;;;;;4952533;29;20456;-85
2021/05/04 06:03:27;;;;;;;9.60;1.73;;;10.10;36.50;;;;;;5032922;28;20583;-82
2021/05/04 06:05:55;;;;;;;9.30;1.60;;;10.20;35.20;;;;;;5035387;28;20449;-83
2021/05/04 06:15:42;;;;;;;;;;;;;;;;;;;;;
2021/05/04 06:28:53;;;;;;;9.50;1.50;;;10.50;31.90;;;;;;4823489;29;20487;-83
2021/05/04 06:31:55;;;;;;;;;;;;;;;;;;;;;
2021/05/04 06:40:52;;;;;;;10.80;1.50;;;10.50;35.30;;;;;;4910209;29;20463;-83
2021/05/04 06:43:45;;;;;;;9.23;1.10;;;10.50;35.50;;;;;;4933915;29;20464;-83
2021/05/04 06:46:50;;;;;;;;;;;;;;;;;;;;;
2021/05/04 06:59:11;;;;;;;;;;;;;;;;;;;;;
2021/05/04 07:02:20;;;;;;;;;;;;;;;;;;;;;
2021/05/04 07:05:25;;;;;;;10.80;1.70;;;11.20;28.50;;;;;;4822917;29;20465;-83
2021/05/04 07:11:37;;;;;;;;;;;;;;;;;;;;;
2021/05/04 07:19:08;;;;;;;10.00;1.00;;;11.30;28.90;;;;;;4858547;29;20906;-83
2021/05/04 07:25:14;;;;;;;14.83;1.57;;;11.20;28.40;;;;;;4822980;29;20558;-84
2021/05/04 07:46:21;;;;;;;10.63;1.10;;;11.50;27.40;;;;;;4856096;29;20467;-83
2021/05/04 07:48:50;;;;;;;17.60;1.50;;;11.50;27.80;;;;;;4968331;28;20461;-82
2021/05/04 07:54:13;;;;;;;13.37;1.53;;;11.40;29.80;;;;;;5034951;28;20844;-84
2021/05/04 07:56:42;;;;;;;13.73;1.60;;;11.40;30.40;;;;;;5034086;28;20986;-82
2021/05/04 07:59:11;;;;;;;15.73;1.77;;;11.40;29.80;;;;;;5038383;28;20440;-82
2021/05/04 08:01:40;;;;;;;10.63;1.10;;;11.50;31.80;;;;;;4984684;28;20540;-82
2021/05/04 08:04:08;;;;;;;11.60;1.77;;;11.50;38.80;;;;;;5034767;28;20455;-82
2021/05/04 08:06:36;;;;;;;11.80;1.43;;;11.50;38.50;;;;;;5034547;28;20542;-82
2021/05/04 08:09:04;;;;;;;13.20;1.40;;;11.60;37.20;;;;;;5034605;28;20622;-83
2021/05/04 08:11:32;;;;;;;11.20;1.33;;;11.70;33.60;;;;;;5034535;28;20484;-82
2021/05/04 08:17:04;;;;;;;11.20;1.30;;;11.80;29.60;;;;;;4933728;29;20841;-83
2021/05/04 08:19:46;;;;;;;11.47;1.37;;;11.90;30.60;;;;;;5027911;28;20509;-82
2021/05/04 08:22:19;;;;;;;12.30;1.60;;;11.60;34.60;;;;;;5034402;28;20551;-82
2021/05/04 08:24:45;;;;;;;11.77;1.57;;;11.30;43.30;;;;;;5034321;28;20828;-82
2021/05/04 08:27:14;;;;;;;10.43;1.50;;;10.90;62.30;;;;;;5033001;28;20974;-82
2021/05/04 08:29:40;;;;;;;11.47;2.00;;;10.50;82.30;;;;;;5034309;28;20451;-82
2021/05/04 08:32:13;;;;;;;18.23;3.00;;;10.50;99.90;;;;;;5034141;28;20488;-82
2021/05/04 08:34:39;;;;;;;10.90;3.10;;;10.60;99.90;;;;;;5034136;28;20453;-82
2021/05/04 08:37:06;;;;;;;10.07;5.10;;;10.60;99.90;;;;;;5034105;28;20490;-82
2021/05/04 08:39:32;;;;;;;13.73;4.40;;;10.70;99.90;;;;;;5034362;28;20480;-82
2021/05/04 08:41:59;;;;;;;11.00;1.87;;;10.90;99.90;;;;;;5032729;28;20459;-81
2021/05/04 08:44:25;;;;;;;10.70;2.00;;;11.00;99.90;;;;;;5034023;28;20457;-82
2021/05/04 08:46:52;;;;;;;9.40;1.83;;;11.00;99.90;;;;;;5033870;28;20542;-82
2021/05/04 08:49:27;;;;;;;9.60;1.50;;;11.10;96.40;;;;;;5034020;28;20471;-83
2021/05/04 08:51:53;;;;;;;9.70;1.73;;;11.20;95.90;;;;;;4998805;28;20822;-81
2021/05/04 08:54:21;;;;;;;10.33;2.50;;;11.10;98.10;;;;;;5033707;28;21081;-82
2021/05/04 08:56:50;;;;;;;9.60;1.80;;;11.20;91.50;;;;;;5032393;28;20453;-81
2021/05/04 08:59:16;;;;;;;10.00;2.30;;;11.10;80.80;;;;;;5033854;28;20493;-82
2021/05/04 09:01:44;;;;;;;10.10;1.60;;;11.30;90.60;;;;;;5033719;28;20813;-83
2021/05/04 09:04:35;;;;;;;10.07;2.20;;;11.30;80.80;;;;;;5033652;28;20844;-83
2021/05/04 09:07:21;;;;;;;13.67;2.67;;;11.40;66.20;;;;;;5033517;28;20462;-83
2021/05/04 09:10:01;;;;;;;14.03;1.90;;;11.30;72.00;;;;;;5033520;28;20558;-81
2021/05/04 09:12:36;;;;;;;13.83;2.20;;;11.40;68.10;;;;;;5032149;28;20493;-81
2021/05/04 09:15:31;;;;;;;10.60;1.60;;;11.40;69.60;;;;;;5033296;28;20458;-82
2021/05/04 09:18:05;;;;;;;12.60;2.03;;;11.50;61.00;;;;;;5033281;28;20490;-82
2021/05/04 09:20:50;;;;;;;11.57;1.70;;;11.60;62.60;;;;;;5033230;28;20526;-82
2021/05/04 09:23:17;;;;;;;13.60;1.90;;;11.80;70.40;;;;;;5033380;28;20502;-81
2021/05/04 09:25:43;;;;;;;10.10;1.30;;;11.80;57.90;;;;;;5033172;28;20544;-82
2021/05/04 09:28:12;;;;;;;10.90;1.83;;;11.60;55.90;;;;;;5031971;28;20457;-81
2021/05/04 09:30:39;;;;;;;14.70;2.30;;;12.00;53.30;;;;;;5033120;28;20499;-82
2021/05/04 09:33:06;;;;;;;11.67;1.60;;;12.40;52.40;;;;;;5033083;28;20838;-83
2021/05/04 09:35:33;;;;;;;11.37;1.93;;;12.30;43.90;;;;;;5033134;28;20547;-81
2021/05/04 09:38:04;;;;;;;11.40;1.43;;;12.20;46.00;;;;;;5033034;28;20555;-82
2021/05/04 09:40:33;;;;;;;11.37;1.50;;;12.20;46.80;;;;;;5032325;28;20463;-82
2021/05/04 09:43:05;;;;;;;11.60;1.40;;;12.20;40.60;;;;;;5031784;28;20986;-81
2021/05/04 09:45:32;;;;;;;13.80;1.80;;;12.20;39.00;;;;;;5033150;28;20463;-82
2021/05/04 09:48:10;;;;;;;14.87;1.77;;;12.00;42.30;;;;;;5032977;28;20506;-82
2021/05/04 09:50:57;;;;;;;14.17;1.63;;;12.00;47.80;;;;;;5032933;28;20879;-81
2021/05/04 09:53:28;;;;;;;15.00;1.67;;;11.90;48.40;;;;;;5032773;28;20487;-81
2021/05/04 09:55:57;;;;;;;12.13;2.40;;;11.40;70.70;;;;;;5032720;28;20459;-82
2021/05/04 09:58:55;;;;;;;11.17;2.77;;;10.40;99.90;;;;;;5032016;28;20451;-85
2021/05/04 10:01:21;;;;;;;11.00;4.87;;;10.10;99.90;;;;;;5032583;28;20453;-83
2021/05/04 10:03:52;;;;;;;25.10;23.17;;;10.50;99.90;;;;;;5032819;28;20456;-81
2021/05/04 10:09:55;;;;;;;11.80;6.17;;;11.10;99.90;;;;;;4996799;28;20530;-81
2021/05/04 10:12:43;;;;;;;16.50;9.63;;;10.90;99.90;;;;;;5012908;28;20548;-81
2021/05/04 10:15:13;;;;;;;22.03;20.23;;;11.10;99.90;;;;;;5005877;28;20483;-81
2021/05/04 10:17:42;;;;;;;15.50;7.77;;;11.90;99.90;;;;;;5013089;28;20464;-80
2021/05/04 10:20:43;;;;;;;17.60;6.00;;;12.40;99.90;;;;;;5013171;28;20875;-82
2021/05/04 10:23:28;;;;;;;16.47;2.60;;;12.70;98.60;;;;;;5013002;28;20548;-81
2021/05/04 10:26:27;;;;;;;12.20;3.20;;;12.60;92.00;;;;;;5012934;28;20461;-82
2021/05/04 10:29:10;;;;;;;12.40;2.47;;;12.60;99.90;;;;;;5012965;28;20520;-81
2021/05/04 10:31:44;;;;;;;17.93;3.17;;;12.30;99.90;;;;;;5012703;28;20646;-81
2021/05/04 10:34:41;;;;;;;13.10;3.20;;;12.30;96.20;;;;;;5012898;28;20458;-82
2021/05/04 10:40:34;;;;;;;14.70;2.23;;;12.30;91.90;;;;;;4967475;28;21048;-81
2021/05/04 10:48:59;;;;;;;12.87;1.40;;;14.30;33.20;;;;;;5011114;28;20796;-81
2021/05/04 10:51:50;;;;;;;16.30;1.73;;;14.30;27.10;;;;;;5013439;28;20460;-81
2021/05/04 10:54:21;;;;;;;15.23;1.83;;;13.70;23.50;;;;;;5016176;28;20963;-80
2021/05/04 10:56:58;;;;;;;14.20;2.07;;;13.20;28.30;;;;;;5016186;28;20456;-81
2021/05/04 10:59:46;;;;;;;16.60;2.73;;;13.30;23.50;;;;;;5016413;28;20519;-81
2021/05/04 11:02:40;;;;;;;;;;;;;;;;;;;;;
2021/05/04 11:05:29;;;;;;;19.97;2.20;;;13.00;23.00;;;;;;5014335;28;20453;-80
2021/05/04 11:08:18;;;;;;;12.97;1.90;;;13.20;24.50;;;;;;4994089;28;20474;-81
2021/05/04 11:11:22;;;;;;;13.70;1.60;;;13.00;20.60;;;;;;4996680;28;20505;-82
2021/05/04 11:14:11;;;;;;;13.63;1.40;;;13.40;22.70;;;;;;4996416;28;20489;-82
2021/05/04 11:17:30;;;;;;;14.90;4.80;;;13.90;20.60;;;;;;4996190;28;20457;-82
2021/05/04 11:23:32;;;;;;;;;;;;;;;;;;;;;
2021/05/04 11:34:25;;;;;;;;;;;;;;;;;;;;;
2021/05/04 11:43:40;;;;;;;23.70;10.27;;;13.90;7.80;;;;;;4748268;30;20522;-82
2021/05/04 11:46:08;;;;;;;20.27;1.40;;;13.00;10.60;;;;;;4905227;28;20450;-81
2021/05/04 11:48:37;;;;;;;23.40;2.37;;;12.30;16.40;;;;;;4974067;28;20987;-82
2021/05/04 11:51:23;;;;;;;19.70;3.33;;;12.30;17.60;;;;;;4972837;28;20455;-82
2021/05/04 12:00:34;;;;;;;16.23;3.17;;;13.60;7.60;;;;;;4844892;29;20469;-82
2021/05/04 12:03:45;;;;;;;23.93;2.17;;;13.80;3.20;;;;;;4897230;29;20458;-82
2021/05/04 12:06:24;;;;;;;;;;;;;;;;;;;;;
2021/05/04 12:09:03;;;;;;;;;;;;;;;;;;;;;
2021/05/04 12:18:42;;;;;;;16.80;2.37;;;13.90;3.80;;;;;;4915073;29;20464;-82
2021/05/04 12:22:14;;;;;;;;;;;;;;;;;;;;;
2021/05/04 12:25:33;;;;;;;15.87;1.63;;;13.60;1.00;;;;;;4822701;29;20453;-83
2021/05/04 12:28:31;;;;;;;19.87;2.50;;;13.30;5.90;;;;;;4863378;29;20451;-82
2021/05/04 12:35:00;;;;;;;16.77;1.93;;;14.10;1.00;;;;;;4969912;28;20454;-82
2021/05/04 12:37:56;;;;;;;19.10;1.97;;;13.80;5.10;;;;;;4993866;28;20810;-83
2021/05/04 12:41:24;;;;;;;15.10;1.77;;;13.00;7.10;;;;;;4988527;28;20446;-82
2021/05/04 12:44:28;;;;;;;21.10;1.97;;;13.00;7.20;;;;;;4897049;29;20559;-83
2021/05/04 12:49:52;;;;;;;18.07;2.33;;;13.30;3.70;;;;;;4987674;28;20462;-82
2021/05/04 12:52:41;;;;;;;14.80;1.27;;;13.50;2.60;;;;;;4993229;28;20473;-82
2021/05/04 12:55:14;;;;;;;25.17;2.47;;;13.60;1.00;;;;;;4994540;28;21019;-82
2021/05/04 12:58:13;;;;;;;16.90;1.60;;;13.50;1.00;;;;;;4994470;28;20449;-82
2021/05/04 13:01:02;;;;;;;18.87;2.00;;;13.60;1.00;;;;;;4994378;28;20496;-82
2021/05/04 13:03:49;;;;;;;26.17;2.80;;;13.70;1.00;;;;;;4994790;28;20457;-82
2021/05/04 13:06:52;;;;;;;20.90;2.07;;;13.60;1.00;;;;;;4992904;28;20478;-82
2021/05/04 13:12:48;;;;;;;19.47;4.57;;;14.40;1.00;;;;;;4991945;28;20492;-82
2021/05/04 13:19:10;;;;;;;;;;;;;;;;;;;;;
2021/05/04 13:28:55;;;;;;;22.30;1.90;;;14.80;1.00;;;;;;4898687;29;20462;-82
2021/05/04 13:35:17;;;;;;;31.40;1.67;;;15.30;1.00;;;;;;4975317;28;20548;-82
2021/05/04 14:25:06;;;;;;;20.73;1.53;;;11.00;64.30;;;;;;4993331;28;20500;-82
2021/05/04 14:27:34;;;;;;;18.20;1.40;;;11.00;43.60;;;;;;4996797;28;20457;-81
2021/05/04 14:30:01;;;;;;;18.00;1.43;;;11.70;35.90;;;;;;4997489;28;20540;-81
2021/05/04 14:32:28;;;;;;;14.00;1.40;;;11.80;21.20;;;;;;4997038;28;20484;-81
2021/05/04 14:34:57;;;;;;;22.97;2.10;;;11.80;26.10;;;;;;4997069;28;20881;-81
2021/05/04 14:37:26;;;;;;;12.73;1.50;;;12.70;24.30;;;;;;4983290;28;20458;-81
2021/05/04 14:40:00;;;;;;;13.07;1.13;;;13.60;15.10;;;;;;4994907;28;20529;-80
2021/05/04 15:01:40;;;;;;;20.20;1.20;;;16.10;1.00;;;;;;5045588;28;20482;-84
2021/05/04 15:04:56;;;;;;;;;;;;;;;;;;;;;
2021/05/04 15:07:57;;;;;;;22.90;1.23;;;16.60;1.00;;;;;;4985975;28;20466;-84
2021/05/04 15:10:30;;;;;;;26.50;2.57;;;15.40;1.00;;;;;;4985510;28;20461;-84
2021/05/04 15:16:18;;;;;;;25.97;1.77;;;16.20;1.00;;;;;;4988474;28;20964;-84
2021/05/04 15:21:58;;;;;;;24.40;1.27;;;16.00;1.00;;;;;;5129277;27;20485;-84
2021/05/04 15:24:27;;;;;;;34.43;3.57;;;15.50;1.00;;;;;;5129919;27;20514;-83
2021/05/04 15:26:59;;;;;;;28.77;1.60;;;14.90;1.00;;;;;;5130055;27;20543;-83
2021/05/04 15:29:30;;;;;;;26.13;2.20;;;14.60;1.00;;;;;;5129820;27;20939;-83
2021/05/04 15:35:10;;;;;;;23.30;1.50;;;15.80;1.00;;;;;;5130168;27;20459;-84
2021/05/04 15:44:06;;;;;;;46.27;7.70;;;15.30;1.00;;;;;;5084790;28;21138;-83
2021/05/04 15:50:42;;;;;;;21.80;1.40;;;14.30;1.00;;;;;;5086153;28;20445;-84
2021/05/04 15:53:45;;;;;;;21.37;1.20;;;14.60;1.00;;;;;;5084744;28;20453;-85
2021/05/04 16:03:17;;;;;;;22.20;2.13;;;14.60;1.00;;;;;;4981948;28;20543;-83
2021/05/04 16:08:28;;;;;;;19.17;1.10;;;14.10;1.00;;;;;;5024834;28;20459;-83
2021/05/04 16:09:51;;;;;;;;;;;;;;;;;;;;;
2021/05/04 16:12:18;;;;;;;18.27;1.37;;;14.40;1.00;;;;;;5001904;28;20437;-80
2021/05/04 16:15:12;;;;;;;16.83;1.00;;;14.20;1.00;;;;;;5114831;28;20440;-83
2021/05/04 16:17:42;;;;;;;24.33;1.83;;;13.80;1.00;;;;;;5012099;28;20481;-83
2021/05/04 16:57:08;;;;;;;14.63;1.43;;;11.50;14.90;;;;;;4835025;29;21063;-84
2021/05/04 17:03:15;;;;;;;16.00;1.53;;;11.10;20.60;;;;;;4920837;28;20465;-83
2021/05/04 17:06:30;;;;;;;13.00;1.57;;;11.00;27.70;;;;;;5024925;28;20481;-83
2021/05/04 17:09:54;;;;;;;;;;;;;;;;;;;;;
2021/05/04 17:13:01;;;;;;;12.87;2.60;;;10.80;28.40;;;;;;4967768;28;20451;-83
2021/05/04 17:19:28;;;;;;;;;;;;;;;;;;;;;
2021/05/04 17:22:00;;;;;;;10.03;1.33;;;10.00;45.40;;;;;;4965237;28;20451;-83
2021/05/04 17:24:44;;;;;;;9.97;1.70;;;9.90;40.10;;;;;;5031837;28;20483;-83
2021/05/04 17:27:13;;;;;;;9.20;1.10;;;9.80;48.60;;;;;;5075007;28;20447;-82
2021/05/04 17:30:10;;;;;;;10.90;1.87;;;9.70;61.90;;;;;;5095803;28;20456;-83
2021/05/04 17:33:25;;;;;;;;;;;;;;;;;;;;;
2021/05/04 17:36:25;;;;;;;8.90;1.20;;;9.40;63.20;;;;;;4931668;29;20608;-82
2021/05/04 17:38:54;;;;;;;13.83;1.67;;;9.30;80.20;;;;;;4951295;28;20463;-82
2021/05/04 17:41:20;;;;;;;9.53;1.07;;;9.10;94.70;;;;;;5047283;28;20967;-82
2021/05/04 17:43:47;;;;;;;9.57;1.30;;;8.90;91.00;;;;;;5107594;28;20476;-82
2021/05/04 17:46:44;;;;;;;9.20;1.20;;;8.90;91.00;;;;;;5114227;28;20466;-83
2021/05/04 17:52:41;;;;;;;12.90;2.23;;;8.80;75.40;;;;;;4983479;28;20613;-83
2021/05/04 17:55:12;;;;;;;8.90;1.13;;;8.80;92.80;;;;;;4908462;28;20457;-82
2021/05/04 17:57:38;;;;;;;10.27;1.60;;;8.60;99.90;;;;;;5084004;28;20909;-81
2021/05/04 18:00:06;;;;;;;9.33;2.00;;;8.60;99.90;;;;;;5114013;28;20950;-82
2021/05/04 18:02:33;;;;;;;12.80;1.67;;;8.40;99.90;;;;;;5113915;28;20926;-82
2021/05/04 18:05:00;;;;;;;9.10;1.10;;;8.30;99.90;;;;;;5113710;28;20488;-82
2021/05/04 18:07:29;;;;;;;8.97;1.40;;;8.30;99.90;;;;;;5112619;28;20540;-82
2021/05/04 18:10:02;;;;;;;9.67;1.50;;;8.10;99.90;;;;;;5093473;28;20947;-82
2021/05/04 18:12:39;;;;;;;10.03;1.60;;;7.80;99.90;;;;;;5095269;28;20453;-82
2021/05/04 18:15:26;;;;;;;8.53;1.40;;;7.50;99.90;;;;;;5093202;28;20481;-82
2021/05/04 18:23:24;;;;;;;7.90;1.07;;;7.20;99.90;;;;;;5113028;28;20500;-83
2021/05/04 18:26:03;;;;;;;8.00;1.20;;;7.10;99.90;;;;;;5113540;28;20459;-83
2021/05/04 18:28:37;;;;;;;8.27;1.57;;;7.20;99.90;;;;;;5113382;28;20466;-83
2021/05/04 18:34:08;;;;;;;;;;;;;;;;;;;;;
2021/05/04 18:36:38;;;;;;;7.47;1.40;;;7.30;99.90;;;;;;5111828;28;20856;-83
2021/05/04 18:39:25;;;;;;;8.17;1.93;;;7.40;99.90;;;;;;5113417;28;20458;-82
2021/05/04 18:42:21;;;;;;;7.67;1.77;;;7.40;99.90;;;;;;5112847;28;20460;-83
2021/05/04 19:10:33;;;;;;;7.30;1.37;;;7.70;99.90;;;;;;5056828;28;20467;-83
2021/05/04 19:22:29;;;;;;;8.33;1.77;;;6.70;99.90;;;;;;5110808;28;20452;-82
2021/05/04 19:27:37;;;;;;;7.40;1.63;;;6.60;99.90;;;;;;5112467;28;20480;-82
2021/05/04 19:28:08;;;;;;;7.63;2.40;;;6.50;99.90;;;;;;5094463;28;20466;-82
2021/05/04 19:30:46;;;;;;;7.90;2.27;;;6.50;99.90;;;;;;5112851;28;20817;-82
2021/05/04 20:07:13;;;;;;;7.90;4.20;;;6.50;99.90;;;;;;5114646;28;20438;-83
2021/05/04 20:09:53;;;;;;;8.07;4.90;;;6.60;99.90;;;;;;5115379;28;20804;-84
2021/05/04 20:12:34;;;;;;;;;;;;;;;;;;;;;
2021/05/04 20:15:24;;;;;;;8.93;3.10;;;6.60;99.90;;;;;;5113952;28;20961;-82
2021/05/04 20:17:56;;;;;;;7.20;2.17;;;6.70;99.90;;;;;;5112527;28;20986;-83
2021/05/04 20:20:25;;;;;;;6.97;1.67;;;6.60;99.90;;;;;;5115649;28;20455;-82
2021/05/04 20:22:52;;;;;;;8.17;2.80;;;6.50;99.90;;;;;;5114171;28;20546;-81
2021/05/04 20:25:20;;;;;;;7.83;3.23;;;6.40;99.90;;;;;;5115422;28;20480;-83